Data for 07/26/2009

Time Sea-Level Adjusted Pressure Absolute Pressure Temperature Relative Humidity Dew Point   
(mb) (inHg) (mb) (inHg) (C) (F) (%) (C) (F)
00:05 1025 30.27 854 25.22 17.8 64 52 7.9 46.2
00:10 1025 30.27 854 25.22 17.7 63.8 51 7.6 45.8
00:15 1025 30.27 854 25.22 17.9 64.2 51 7.6 45.7
00:20 1025 30.27 854 25.22 18 64.5 51 7.9 46.2
00:25 1025 30.27 854 25.22 17.9 64.2 52 7.9 46.3
00:30 1025 30.27 854 25.22 17.8 64 52 7.8 46.1
00:35 1025 30.27 854 25.22 17.8 64.1 51 7.8 46
00:40 1025 30.27 854 25.22 18.1 64.6 49 7.3 45.1
00:45 1024 30.24 854 25.22 18.6 65.4 49 7.6 45.7
00:50 1024 30.24 854 25.22 18.5 65.4 50 7.9 46.3
00:55 1024 30.24 854 25.22 18.2 64.8 52 8.5 47.2
01:00 1024 30.24 853 25.19 17.4 63.4 58 9.2 48.6
01:05 1024 30.24 853 25.19 16.3 61.4 59 8.5 47.2
01:10 1024 30.24 853 25.19 16.2 61.2 58 8 46.5
01:15 1024 30.24 853 25.19 16.5 61.6 58 8.3 46.9
01:20 1024 30.24 853 25.19 16.7 62.1 56 8 46.4
01:25 1024 30.24 853 25.19 16.6 62 57 8.1 46.6
01:30 1024 30.24 853 25.19 16.7 62.1 58 8.4 47.1
01:35 1024 30.24 853 25.19 16.4 61.6 60 8.8 47.9
01:40 1024 30.24 853 25.19 16.3 61.3 58 8 46.4
01:45 1024 30.24 853 25.19 16.4 61.4 58 8.2 46.8
01:50 1024 30.24 853 25.19 16.1 60.9 59 8.1 46.6
01:55 1024 30.24 853 25.19 16 60.8 61 8.5 47.2
02:00 1024 30.24 853 25.19 15.9 60.6 60 8.3 47
02:05 1024 30.24 853 25.19 15.8 60.4 61 8.3 47
02:10 1024 30.24 853 25.19 15.9 60.6 60 8.2 46.7
02:15 1024 30.24 853 25.19 15.7 60.3 61 8.2 46.8
02:20 1024 30.24 853 25.19 15.6 60 61 8.2 46.8
02:25 1024 30.24 853 25.19 15.3 59.6 62 8.1 46.6
02:30 1024 30.24 853 25.19 15.1 59.2 63 8.1 46.7
02:35 1024 30.24 853 25.19 14.9 58.8 64 8.1 46.6
02:40 1024 30.24 853 25.19 14.9 58.9 63 8 46.4
02:45 1024 30.24 853 25.19 14.9 58.8 63 8 46.5
02:50 1024 30.24 853 25.19 15.1 59.1 61 7.8 46
02:55 1024 30.24 853 25.19 15.9 60.6 58 7.7 45.9
03:00 1024 30.24 853 25.19 15.7 60.3 63 8.7 47.7
03:05 1024 30.24 853 25.19 15.2 59.3 61 7.8 46
03:10 1024 30.24 853 25.19 14.8 58.7 63 7.9 46.1
03:15 1024 30.24 853 25.19 14.7 58.5 62 7.7 45.8
03:20 1024 30.24 853 25.19 14.8 58.6 61 7.3 45.1
03:25 1024 30.24 853 25.19 15 59.1 62 7.8 46
03:30 1024 30.24 853 25.19 14.8 58.6 62 7.6 45.6
03:35 1024 30.24 853 25.19 14.8 58.7 62 7.7 45.8
03:40 1024 30.24 853 25.19 14.7 58.4 62 7.5 45.6
03:45 1024 30.24 853 25.19 14.7 58.4 63 7.9 46.1
03:50 1024 30.24 853 25.19 14.4 58 64 7.7 45.8
03:55 1024 30.24 853 25.19 14.5 58 63 7.5 45.6
04:00 1024 30.24 853 25.19 14.5 58.1 63 7.7 45.8
04:05 1024 30.24 853 25.19 14.3 57.8 64 7.6 45.7
04:10 1024 30.24 853 25.19 14.2 57.6 64 7.7 45.8
04:15 1024 30.24 853 25.19 14.2 57.5 64 7.6 45.6
04:20 1024 30.24 853 25.19 14 57.2 66 7.7 45.9
04:25 1024 30.24 853 25.19 13.7 56.7 66 7.6 45.8
04:30 1024 30.24 853 25.19 13.7 56.6 66 7.5 45.6
04:35 1024 30.24 853 25.19 13.5 56.3 68 7.7 45.9
04:40 1024 30.24 853 25.19 13.4 56.1 68 7.7 45.9
04:45 1024 30.24 853 25.19 13.1 55.7 69 7.6 45.7
04:50 1024 30.24 853 25.19 13.2 55.8 67 7.3 45.2
04:55 1024 30.24 853 25.19 13.6 56.4 66 7.3 45.2
05:00 1024 30.24 853 25.19 13.5 56.4 67 7.5 45.6
05:05 1024 30.24 853 25.19 13.5 56.2 67 7.6 45.6
05:10 1024 30.24 853 25.19 13.4 56.2 68 7.8 46
05:15 1024 30.24 853 25.19 13.3 55.9 69 7.7 45.8
05:20 1024 30.24 853 25.19 13.3 56 68 7.5 45.5
05:25 1024 30.24 853 25.19 13.5 56.2 67 7.5 45.6
05:30 1024 30.24 853 25.19 13.5 56.2 67 7.5 45.5
05:35 1024 30.24 853 25.19 13.3 56 68 7.7 45.8
05:40 1024 30.24 853 25.19 13.1 55.5 71 7.9 46.2
05:45 1024 30.24 853 25.19 12.8 55.1 69 7.3 45.2
05:50 1024 30.24 853 25.19 13 55.3 69 7.4 45.2
05:55 1024 30.24 853 25.19 12.9 55.3 70 7.6 45.6
06:00 1024 30.24 853 25.19 12.6 54.6 71 7.5 45.6
06:05 1024 30.24 853 25.19 12.4 54.3 71 7.4 45.3
06:10 1024 30.24 853 25.19 12.5 54.5 71 7.4 45.3
06:15 1024 30.24 853 25.19 12.8 55 71 7.7 45.8
06:20 1024 30.24 853 25.19 12.8 55 69 7.4 45.2
06:25 1024 30.24 853 25.19 13.3 55.9 68 7.6 45.6
06:30 1024 30.24 853 25.19 13.6 56.5 67 7.6 45.7
06:35 1024 30.24 853 25.19 13.5 56.4 68 7.9 46.2
06:40 1024 30.24 853 25.19 13.4 56.2 67 7.4 45.3
06:45 1024 30.24 853 25.19 13.8 56.9 65 7.4 45.4
06:50 1024 30.24 853 25.19 14.2 57.5 64 7.4 45.4
06:55 1024 30.24 853 25.19 14.4 57.9 63 7.6 45.6
07:00 1024 30.24 853 25.19 14.4 58 64 7.9 46.2
07:05 1024 30.24 854 25.22 14.4 57.9 65 8 46.3
07:10 1024 30.24 854 25.22 14.4 58 64 7.9 46.2
07:15 1024 30.24 854 25.22 14.6 58.3 63 7.7 45.8
07:20 1024 30.24 853 25.19 15 59 62 8 46.3
07:25 1024 30.24 853 25.19 15.2 59.4 61 7.8 46
07:30 1024 30.24 853 25.19 15.1 59.1 64 8.3 46.9
07:35 1024 30.24 854 25.22 15.4 59.7 61 7.9 46.3
07:40 1024 30.24 854 25.22 16.1 60.9 60 8.3 47
07:45 1024 30.24 854 25.22 16.6 61.8 57 8.1 46.6
07:50 1024 30.24 854 25.22 17.4 63.4 53 8 46.3
07:55 1025 30.27 854 25.22 17.2 62.9 56 8.4 47.1
08:00 1025 30.27 854 25.22 17.6 63.7 54 8.2 46.7
08:05 1025 30.27 854 25.22 18.1 64.6 52 8.2 46.8
08:10 1025 30.27 854 25.22 18.6 65.4 51 8.4 47.1
08:15 1024 30.24 854 25.22 17.7 63.8 56 8.9 48
08:20 1025 30.27 854 25.22 17.9 64.1 53 8.4 47.1
08:25 1025 30.27 854 25.22 19.1 66.3 50 8.4 47.1
08:30 1025 30.27 854 25.22 19.7 67.4 50 9.1 48.4
08:35 1025 30.27 854 25.22 19.9 67.8 49 9 48.1
08:40 1025 30.27 854 25.22 19.4 67 50 8.7 47.7
08:45 1025 30.27 854 25.22 19.3 66.8 50 8.7 47.7
08:50 1025 30.27 854 25.22 19 66.3 51 8.8 47.9
08:55 1025 30.27 854 25.22 19.7 67.4 49 8.8 47.8
09:00 1025 30.27 854 25.22 19.6 67.2 48 8.5 47.3
09:05 1025 30.27 854 25.22 19.6 67.3 50 8.9 48
09:10 1025 30.27 854 25.22 19.7 67.4 51 9.4 48.9
09:15 1025 30.27 854 25.22 19.4 67 52 9.3 48.7
09:20 1025 30.27 854 25.22 19.2 66.6 51 9 48.2
09:25 1025 30.27 854 25.22 19.3 66.8 48 8.3 46.9
09:30 1025 30.27 854 25.22 19.5 67.2 50 9 48.2
09:35 1025 30.27 854 25.22 19.6 67.2 51 9.2 48.6
09:40 1025 30.27 854 25.22 20.1 68.1 51 9.8 49.6
09:45 1025 30.27 854 25.22 20.7 69.3 49 9.9 49.7
09:50 1025 30.27 854 25.22 21.1 69.9 50 10.5 50.9
09:55 1025 30.27 854 25.22 20.6 69 50 9.8 49.6
10:00 1025 30.27 854 25.22 20.8 69.4 48 9.5 49.1
10:05 1025 30.27 854 25.22 20.5 68.9 48 9.2 48.6
10:10 1025 30.27 854 25.22 20.5 68.8 48 9.2 48.5
10:15 1024 30.24 854 25.22 20.6 69.1 50 9.9 49.8
10:20 1024 30.24 854 25.22 20.5 68.9 49 9.5 49.1
10:25 1024 30.24 853 25.19 21 69.9 46 9.2 48.6
10:30 1024 30.24 854 25.22 22.1 71.8 44 9.3 48.8
10:35 1024 30.24 854 25.22 22.1 71.8 43 9.2 48.6
10:40 1024 30.24 854 25.22 22.8 73 39 8.4 47.2
10:45 1024 30.24 853 25.19 23.5 74.3 42 9.9 49.7
10:50 1024 30.24 853 25.19 23.5 74.3 39 8.8 47.8
10:55 1024 30.24 853 25.19 23 73.4 40 9 48.1
11:00 1024 30.24 853 25.19 23.6 74.5 39 9.1 48.3
11:05 1024 30.24 853 25.19 22.8 73.1 42 9.4 48.9
11:10 1024 30.24 853 25.19 22.9 73.3 41 9.3 48.8
11:15 1024 30.24 853 25.19 24.1 75.3 38 8.9 48
11:20 1024 30.24 853 25.19 23.8 74.8 40 9.4 49
11:25 1024 30.24 853 25.19 24.1 75.3 37 8.7 47.6
11:30 1024 30.24 853 25.19 25.1 77.1 35 8.6 47.5
11:35 1024 30.24 853 25.19 25 76.9 35 8.8 47.9
11:40 1024 30.24 853 25.19 24.9 76.8 39 10 50.1
11:45 1024 30.24 853 25.19 24.4 75.9 36 8.6 47.5
11:50 1024 30.24 853 25.19 24 75.2 38 8.9 48
11:55 1024 30.24 853 25.19 24 75.2 39 9.4 48.9
12:00 1024 30.24 853 25.19 24.3 75.7 40 10 50
12:05 1024 30.24 853 25.19 24.9 76.7 37 9.3 48.7
12:10 1024 30.24 853 25.19 24.8 76.7 37 9.5 49.1
12:15 1024 30.24 853 25.19 24.8 76.7 35 8.7 47.6
12:20 1024 30.24 853 25.19 25.5 77.9 35 9 48.2
12:25 1024 30.24 853 25.19 25.6 78.1 36 9.6 49.3
12:30 1024 30.24 853 25.19 26 78.8 33 8.9 48
12:35 1024 30.24 853 25.19 26.3 79.3 35 9.8 49.6
12:40 1024 30.24 853 25.19 26.6 79.9 32 9 48.2
12:45 1023 30.21 853 25.19 26.5 79.6 33 9.3 48.8
12:50 1023 30.21 853 25.19 25.9 78.6 34 9.2 48.6
12:55 1023 30.21 852 25.16 26.1 79.1 31 8.2 46.7
13:00 1023 30.21 852 25.16 27.3 81.2 30 8.4 47.2
13:05 1023 30.21 852 25.16 27.5 81.5 29 8 46.5
13:10 1023 30.21 852 25.16 28.4 83.2 30 9.3 48.8
13:15 1023 30.21 852 25.16 28.4 83.2 30 9.5 49
13:20 1023 30.21 852 25.16 27.5 81.5 31 9.2 48.5
13:25 1023 30.21 852 25.16 27.4 81.4 31 9.3 48.8
13:30 1023 30.21 852 25.16 27.1 80.7 31 8.8 47.8
13:35 1023 30.21 852 25.16 28.1 82.6 29 8.5 47.3
13:40 1023 30.21 852 25.16 28.1 82.6 28 8.4 47.1
13:45 1023 30.21 852 25.16 29.1 84.4 27 8.4 47.2
13:50 1022 30.18 852 25.16 29.4 84.9 26 8.4 47.1
13:55 1022 30.18 852 25.16 30 86 25 8.3 47
14:00 1022 30.18 851 25.13 30.1 86.3 24 7.7 45.9
14:05 1022 30.18 851 25.13 29.9 85.8 23 6.9 44.4
14:10 1022 30.18 851 25.13 30.6 87.1 21 6.4 43.6
14:15 1022 30.18 851 25.13 30.7 87.2 21 6.3 43.3
14:20 1022 30.18 851 25.13 31.1 88 19 5.4 41.7
14:25 1022 30.18 851 25.13 31.4 88.6 18 5 41
14:30 1022 30.18 851 25.13 31.5 88.7 15 2.1 35.8
14:35 1022 30.18 851 25.13 31.1 87.9 18 4 39.1
14:40 1022 30.18 851 25.13 31.2 88.2 15 2.3 36.1
14:45 1022 30.18 851 25.13 31.5 88.8 17 3.5 38.3
14:50 1022 30.18 851 25.13 31.3 88.3 17 3.9 39.1
14:55 1022 30.18 851 25.13 31.2 88.2 15 2.1 35.8
15:00 1022 30.18 851 25.13 31.1 88 18 4.1 39.3
15:05 1021 30.15 851 25.13 31 87.8 18 4 39.1
15:10 1021 30.15 851 25.13 29.8 85.6 18 3.6 38.6
15:15 1021 30.15 851 25.13 30 86.1 17 3 37.4
15:20 1021 30.15 851 25.13 31 87.7 17 3.6 38.4
15:25 1021 30.15 851 25.13 30.7 87.2 17 3.1 37.6
15:30 1021 30.15 851 25.13 30.9 87.7 18 4 39.2
15:35 1021 30.15 851 25.13 30.5 86.8 18 4.2 39.6
15:40 1021 30.15 851 25.13 29.9 85.9 19 4.4 39.9
15:45 1021 30.15 851 25.13 29.9 85.8 19 4.3 39.8
15:50 1021 30.15 851 25.13 30.3 86.5 18 3.7 38.7
15:55 1021 30.15 850 25.1 30.3 86.6 19 4.4 39.9
16:00 1021 30.15 850 25.1 30.1 86.1 19 4.5 40.1
16:05 1021 30.15 850 25.1 29.9 85.9 19 4.4 39.9
16:10 1021 30.15 850 25.1 29.8 85.6 19 4 39.1
16:15 1021 30.15 850 25.1 29.5 85 18 3.2 37.7
16:20 1021 30.15 850 25.1 29.3 84.7 19 3.4 38.1
16:25 1021 30.15 850 25.1 29.7 85.5 17 2.8 37
16:30 1021 30.15 850 25.1 29.4 84.9 19 3.4 38.2
16:35 1021 30.15 850 25.1 29.3 84.7 19 3.6 38.4
16:40 1021 30.15 850 25.1 29.1 84.4 18 2.9 37.3
16:45 1021 30.15 850 25.1 28.8 83.8 22 5.6 42.1
16:50 1021 30.15 850 25.1 28 82.4 32 9.9 49.8
16:55 1021 30.15 850 25.1 27 80.5 35 10.6 51.2
17:00 1021 30.15 851 25.13 26.3 79.4 34 9.4 48.9
17:05 1022 30.18 851 25.13 25.9 78.6 32 8 46.4
17:10 1022 30.18 851 25.13 25.3 77.6 29 6.2 43.2
17:15 1022 30.18 851 25.13 23.5 74.3 53 13.6 56.4
17:20 1023 30.21 852 25.16 20.4 68.8 57 11.8 53.2
17:25 1023 30.21 852 25.16 19.6 67.2 64 12.6 54.8
17:30 1023 30.21 852 25.16 19.1 66.4 58 10.8 51.4
17:35 1023 30.21 852 25.16 19.3 66.8 58 11.1 51.9
17:40 1023 30.21 852 25.16 19 66.1 63 11.8 53.3
17:45 1023 30.21 852 25.16 19.3 66.7 58 10.8 51.5
17:50 1023 30.21 852 25.16 19.8 67.7 53 10.2 50.3
17:55 1023 30.21 852 25.16 20.3 68.5 58 11.9 53.4
18:00 1023 30.21 852 25.16 19.8 67.6 60 11.8 53.3
18:05 1023 30.21 852 25.16 19.7 67.4 63 12.6 54.6
18:10 1023 30.21 852 25.16 19.4 67 61 11.9 53.4
18:15 1023 30.21 852 25.16 19.5 67.1 61 12 53.6
18:20 1023 30.21 852 25.16 19.3 66.8 65 12.6 54.7
18:25 1023 30.21 852 25.16 19.1 66.4 65 12.6 54.7
18:30 1023 30.21 852 25.16 19 66.1 66 12.5 54.5
18:35 1023 30.21 852 25.16 18.8 65.9 64 12.1 53.7
18:40 1023 30.21 852 25.16 19 66.1 62 11.6 52.8
18:45 1023 30.21 852 25.16 19.1 66.4 61 11.6 52.9
18:50 1023 30.21 852 25.16 19.1 66.3 62 11.8 53.3
18:55 1023 30.21 852 25.16 19.2 66.5 59 11.2 52.2
19:00 1022 30.18 852 25.16 19.4 66.9 61 11.7 53.1
19:05 1022 30.18 852 25.16 19.4 66.9 60 11.6 52.9
19:10 1022 30.18 852 25.16 19.4 66.9 61 11.8 53.2
19:15 1022 30.18 852 25.16 19.4 66.9 61 11.7 53
19:20 1022 30.18 852 25.16 19.5 67.1 59 11.5 52.7
19:25 1022 30.18 852 25.16 19.7 67.5 60 11.9 53.4
19:30 1022 30.18 852 25.16 19.8 67.6 59 11.8 53.2
19:35 1022 30.18 852 25.16 19.8 67.6 60 11.9 53.4
19:40 1022 30.18 851 25.13 20 67.9 56 11.1 51.9
19:45 1022 30.18 851 25.13 20.3 68.5 55 11 51.8
19:50 1022 30.18 851 25.13 20.4 68.6 54 10.9 51.7
19:55 1022 30.18 851 25.13 20.5 68.8 53 10.7 51.2
20:00 1022 30.18 851 25.13 20.5 68.9 53 10.6 51.2
20:05 1022 30.18 851 25.13 20.5 68.9 53 10.9 51.5
20:10 1022 30.18 851 25.13 20.4 68.6 54 10.8 51.4
20:15 1022 30.18 851 25.13 20.3 68.5 54 10.7 51.3
20:20 1022 30.18 851 25.13 20.2 68.4 52 10.2 50.3
20:25 1022 30.18 851 25.13 20.4 68.7 50 9.7 49.5
20:30 1022 30.18 851 25.13 20.4 68.6 50 9.6 49.3
20:35 1022 30.18 852 25.16 20.4 68.7 49 9.3 48.8
20:40 1022 30.18 852 25.16 20.3 68.6 48 9.1 48.4
20:45 1022 30.18 852 25.16 20.4 68.6 45 8.2 46.7
20:50 1022 30.18 852 25.16 20.6 69 44 8 46.4
20:55 1022 30.18 852 25.16 20.7 69.2 41 7.1 44.8
21:00 1022 30.18 852 25.16 20.9 69.6 43 7.9 46.3
21:05 1022 30.18 851 25.13 20.4 68.8 47 9 48.1
21:10 1022 30.18 852 25.16 19.6 67.4 53 9.8 49.7
21:15 1022 30.18 852 25.16 19 66.2 55 9.8 49.7
21:20 1022 30.18 852 25.16 18.7 65.7 56 9.9 49.8
21:25 1022 30.18 852 25.16 18.6 65.5 54 9.1 48.5
21:30 1023 30.21 852 25.16 18.6 65.5 54 9.1 48.4
21:35 1023 30.21 852 25.16 18.6 65.5 53 9 48.3
21:40 1023 30.21 852 25.16 18.6 65.5 52 8.8 47.8
21:45 1023 30.21 852 25.16 18.5 65.2 55 9.3 48.7
21:50 1023 30.21 852 25.16 18.1 64.6 57 9.5 49.2
21:55 1023 30.21 852 25.16 17.7 63.8 58 9.5 49.1
22:00 1023 30.21 852 25.16 17.5 63.5 58 9.3 48.7
22:05 1023 30.21 852 25.16 17.6 63.7 57 9.2 48.6
22:10 1023 30.21 852 25.16 17.5 63.6 58 9.2 48.6
22:15 1023 30.21 852 25.16 17.5 63.5 56 8.6 47.5
22:20 1023 30.21 852 25.16 18 64.4 53 8.3 47
22:25 1023 30.21 852 25.16 18.2 64.7 53 8.5 47.3
22:30 1023 30.21 852 25.16 18.1 64.7 54 8.8 47.9
22:35 1023 30.21 852 25.16 17.9 64.3 55 9 48.2
22:40 1023 30.21 852 25.16 17.6 63.7 57 9.1 48.3
22:45 1023 30.21 852 25.16 17.3 63.2 58 9 48.3
22:50 1023 30.21 852 25.16 17.2 63 58 9 48.3
22:55 1023 30.21 852 25.16 17.1 62.8 59 9 48.3
23:00 1023 30.21 852 25.16 16.7 62 64 10 50
23:05 1023 30.21 852 25.16 16.1 61 63 9.3 48.7
23:10 1023 30.21 852 25.16 16.2 61.2 63 9.2 48.6
23:15 1023 30.21 852 25.16 16.2 61.1 63 9.3 48.7
23:20 1023 30.21 852 25.16 16.1 60.9 60 8.3 46.9
23:25 1023 30.21 852 25.16 16.5 61.8 59 8.6 47.5
23:30 1023 30.21 852 25.16 16.4 61.5 59 8.4 47.2
23:35 1023 30.21 852 25.16 16.1 61 61 8.6 47.5
23:40 1023 30.21 852 25.16 15.9 60.5 61 8.5 47.3
23:45 1023 30.21 852 25.16 15.9 60.6 61 8.5 47.2
23:50 1023 30.21 852 25.16 15.9 60.6 62 8.6 47.5
23:55 1023 30.21 852 25.16 16 60.7 61 8.6 47.4
24:00 1023 30.21 852 25.16 15.7 60.3 63 8.9 48